sensor_id;sensor_type;location;lat;lon;timestamp;pressure;altitude;pressure_sealevel;temperature;humidity
6224;BME280;3145;42.726;23.342;2022-11-20T00:01:11;94660.28;;;14.71;100.00
6224;BME280;3145;42.726;23.342;2022-11-20T00:03:38;94659.81;;;14.74;100.00
6224;BME280;3145;42.726;23.342;2022-11-20T00:06:07;94649.66;;;14.71;100.00
6224;BME280;3145;42.726;23.342;2022-11-20T00:08:34;94652.66;;;14.74;100.00
6224;BME280;3145;42.726;23.342;2022-11-20T00:11:03;94650.31;;;14.84;100.00
6224;BME280;3145;42.726;23.342;2022-11-20T00:13:30;94629.25;;;14.83;100.00
6224;BME280;3145;42.726;23.342;2022-11-20T00:15:58;94631.09;;;14.82;100.00
6224;BME280;3145;42.726;23.342;2022-11-20T00:18:26;94642.25;;;14.91;100.00
6224;BME280;3145;42.726;23.342;2022-11-20T00:20:53;94628.66;;;14.99;100.00
6224;BME280;3145;42.726;23.342;2022-11-20T00:23:20;94628.78;;;15.04;100.00
6224;BME280;3145;42.726;23.342;2022-11-20T00:25:46;94640.09;;;14.99;100.00
6224;BME280;3145;42.726;23.342;2022-11-20T00:28:13;94637.81;;;15.03;100.00
6224;BME280;3145;42.726;23.342;2022-11-20T00:30:40;94649.03;;;15.05;100.00
6224;BME280;3145;42.726;23.342;2022-11-20T00:33:07;94637.94;;;15.08;100.00
6224;BME280;3145;42.726;23.342;2022-11-20T00:35:35;94649.63;;;15.07;99.48
6224;BME280;3145;42.726;23.342;2022-11-20T00:38:01;94643.41;;;15.13;99.24
6224;BME280;3145;42.726;23.342;2022-11-20T00:40:28;94635.41;;;15.13;99.01
6224;BME280;3145;42.726;23.342;2022-11-20T00:42:55;94634.06;;;15.22;98.70
6224;BME280;3145;42.726;23.342;2022-11-20T00:45:21;94629.47;;;15.29;97.69
6224;BME280;3145;42.726;23.342;2022-11-20T00:47:48;94635.63;;;15.29;97.93
6224;BME280;3145;42.726;23.342;2022-11-20T00:50:15;94639.63;;;15.38;95.62
6224;BME280;3145;42.726;23.342;2022-11-20T00:52:43;94638.09;;;15.60;92.26
6224;BME280;3145;42.726;23.342;2022-11-20T00:55:09;94637.94;;;15.96;88.31
6224;BME280;3145;42.726;23.342;2022-11-20T00:57:36;94637.84;;;16.03;88.25
6224;BME280;3145;42.726;23.342;2022-11-20T01:00:04;94638.56;;;16.10;88.57
6224;BME280;3145;42.726;23.342;2022-11-20T01:02:31;94631.50;;;16.15;87.03
6224;BME280;3145;42.726;23.342;2022-11-20T01:04:58;94645.28;;;16.24;83.88
6224;BME280;3145;42.726;23.342;2022-11-20T01:07:24;94638.47;;;16.39;84.36
6224;BME280;3145;42.726;23.342;2022-11-20T01:09:52;94634.31;;;16.55;83.73
6224;BME280;3145;42.726;23.342;2022-11-20T01:12:19;94631.38;;;16.79;80.68
6224;BME280;3145;42.726;23.342;2022-11-20T01:14:47;94614.41;;;16.97;78.75
6224;BME280;3145;42.726;23.342;2022-11-20T01:17:13;94620.72;;;17.19;77.99
6224;BME280;3145;42.726;23.342;2022-11-20T01:19:40;94615.47;;;17.24;77.44
6224;BME280;3145;42.726;23.342;2022-11-20T01:22:07;94601.75;;;17.32;75.48
6224;BME280;3145;42.726;23.342;2022-11-20T01:24:33;94631.53;;;17.52;72.96
6224;BME280;3145;42.726;23.342;2022-11-20T01:27:01;94593.94;;;17.70;71.66
6224;BME280;3145;42.726;23.342;2022-11-20T01:29:28;94614.84;;;17.73;72.35
6224;BME280;3145;42.726;23.342;2022-11-20T01:31:55;94603.97;;;17.63;71.96
6224;BME280;3145;42.726;23.342;2022-11-20T01:34:22;94606.53;;;17.58;73.38
6224;BME280;3145;42.726;23.342;2022-11-20T01:36:51;94608.84;;;17.66;70.39
6224;BME280;3145;42.726;23.342;2022-11-20T01:39:20;94591.94;;;18.10;68.13
6224;BME280;3145;42.726;23.342;2022-11-20T01:41:48;94589.75;;;18.07;68.57
6224;BME280;3145;42.726;23.342;2022-11-20T01:44:54;94595.41;;;17.94;59.66
6224;BME280;3145;42.726;23.342;2022-11-20T01:47:30;94574.50;;;17.91;59.15
6224;BME280;3145;42.726;23.342;2022-11-20T01:50:01;94587.47;;;17.99;58.98
6224;BME280;3145;42.726;23.342;2022-11-20T01:52:34;94593.63;;;17.99;58.75
6224;BME280;3145;42.726;23.342;2022-11-20T01:55:04;94594.78;;;18.20;56.59
6224;BME280;3145;42.726;23.342;2022-11-20T01:57:33;94596.22;;;18.11;58.72
6224;BME280;3145;42.726;23.342;2022-11-20T02:00:05;94594.59;;;18.10;58.78
6224;BME280;3145;42.726;23.342;2022-11-20T02:02:33;94577.91;;;18.03;58.19
6224;BME280;3145;42.726;23.342;2022-11-20T02:05:04;94588.59;;;18.03;58.91
6224;BME280;3145;42.726;23.342;2022-11-20T02:07:33;94585.63;;;17.99;58.66
6224;BME280;3145;42.726;23.342;2022-11-20T02:09:59;94591.69;;;17.95;59.74
6224;BME280;3145;42.726;23.342;2022-11-20T02:12:26;94609.72;;;17.88;60.07
6224;BME280;3145;42.726;23.342;2022-11-20T02:15:13;94569.97;;;17.75;59.24
6224;BME280;3145;42.726;23.342;2022-11-20T02:17:39;94581.47;;;17.75;59.24
6224;BME280;3145;42.726;23.342;2022-11-20T02:20:07;94598.66;;;17.79;58.66
6224;BME280;3145;42.726;23.342;2022-11-20T02:22:38;94591.22;;;17.98;57.56
6224;BME280;3145;42.726;23.342;2022-11-20T02:25:07;94584.31;;;18.02;57.77
6224;BME280;3145;42.726;23.342;2022-11-20T02:27:35;94607.97;;;17.93;59.28
6224;BME280;3145;42.726;23.342;2022-11-20T02:30:05;94610.78;;;17.87;59.58
6224;BME280;3145;42.726;23.342;2022-11-20T02:32:35;94599.16;;;17.93;57.85
6224;BME280;3145;42.726;23.342;2022-11-20T02:35:07;94593.31;;;17.96;57.62
6224;BME280;3145;42.726;23.342;2022-11-20T02:37:36;94612.59;;;17.98;58.05
6224;BME280;3145;42.726;23.342;2022-11-20T02:40:04;94602.53;;;17.88;58.24
6224;BME280;3145;42.726;23.342;2022-11-20T02:42:32;94607.72;;;17.95;58.05
6224;BME280;3145;42.726;23.342;2022-11-20T02:44:59;94618.25;;;18.01;57.20
6224;BME280;3145;42.726;23.342;2022-11-20T02:47:26;94626.03;;;18.03;57.85
6224;BME280;3145;42.726;23.342;2022-11-20T02:49:53;94617.75;;;17.88;58.62
6224;BME280;3145;42.726;23.342;2022-11-20T02:52:19;94617.78;;;18.04;57.67
6224;BME280;3145;42.726;23.342;2022-11-20T02:54:46;94633.19;;;18.14;58.42
6224;BME280;3145;42.726;23.342;2022-11-20T02:57:13;94639.19;;;18.21;57.69
6224;BME280;3145;42.726;23.342;2022-11-20T02:59:41;94645.09;;;18.23;57.71
6224;BME280;3145;42.726;23.342;2022-11-20T03:02:07;94640.03;;;18.38;56.74
6224;BME280;3145;42.726;23.342;2022-11-20T03:04:34;94644.78;;;18.69;55.71
6224;BME280;3145;42.726;23.342;2022-11-20T03:07:01;94645.75;;;18.63;56.57
6224;BME280;3145;42.726;23.342;2022-11-20T03:09:27;94634.66;;;18.38;57.19
6224;BME280;3145;42.726;23.342;2022-11-20T03:11:54;94659.00;;;18.53;56.45
6224;BME280;3145;42.726;23.342;2022-11-20T03:14:21;94679.09;;;18.56;56.24
6224;BME280;3145;42.726;23.342;2022-11-20T03:16:49;94665.97;;;18.54;56.87
6224;BME280;3145;42.726;23.342;2022-11-20T03:19:16;94661.44;;;18.55;56.07
6224;BME280;3145;42.726;23.342;2022-11-20T03:21:43;94662.63;;;18.47;56.63
6224;BME280;3145;42.726;23.342;2022-11-20T03:24:09;94667.75;;;18.49;57.48
6224;BME280;3145;42.726;23.342;2022-11-20T03:26:36;94667.97;;;18.47;57.63
6224;BME280;3145;42.726;23.342;2022-11-20T03:29:04;94671.44;;;18.31;58.69
6224;BME280;3145;42.726;23.342;2022-11-20T03:31:33;94665.19;;;18.26;58.90
6224;BME280;3145;42.726;23.342;2022-11-20T03:34:02;94678.09;;;18.29;58.59
6224;BME280;3145;42.726;23.342;2022-11-20T03:36:29;94684.94;;;18.36;58.38
6224;BME280;3145;42.726;23.342;2022-11-20T03:38:57;94682.13;;;18.31;59.32
6224;BME280;3145;42.726;23.342;2022-11-20T03:41:25;94681.59;;;18.29;58.88
6224;BME280;3145;42.726;23.342;2022-11-20T03:43:54;94691.22;;;18.30;59.07
6224;BME280;3145;42.726;23.342;2022-11-20T03:46:21;94683.03;;;18.20;59.46
6224;BME280;3145;42.726;23.342;2022-11-20T03:48:48;94690.97;;;18.15;59.91
6224;BME280;3145;42.726;23.342;2022-11-20T03:51:18;94681.16;;;18.04;60.04
6224;BME280;3145;42.726;23.342;2022-11-20T03:53:46;94680.66;;;18.07;60.62
6224;BME280;3145;42.726;23.342;2022-11-20T03:56:15;94672.88;;;17.89;60.96
6224;BME280;3145;42.726;23.342;2022-11-20T03:58:43;94640.28;;;17.75;61.29
6224;BME280;3145;42.726;23.342;2022-11-20T04:01:11;94665.31;;;17.86;61.57
6224;BME280;3145;42.726;23.342;2022-11-20T04:03:38;94667.16;;;17.85;61.71
6224;BME280;3145;42.726;23.342;2022-11-20T04:06:07;94669.59;;;17.87;61.44
6224;BME280;3145;42.726;23.342;2022-11-20T04:08:36;94671.59;;;17.80;61.75
6224;BME280;3145;42.726;23.342;2022-11-20T04:11:11;94683.72;;;17.82;60.82
6224;BME280;3145;42.726;23.342;2022-11-20T04:13:38;94684.50;;;17.83;60.70
6224;BME280;3145;42.726;23.342;2022-11-20T04:16:06;94679.75;;;17.85;61.08
6224;BME280;3145;42.726;23.342;2022-11-20T04:18:33;94680.69;;;17.79;60.99
6224;BME280;3145;42.726;23.342;2022-11-20T04:21:00;94672.19;;;17.82;61.42
6224;BME280;3145;42.726;23.342;2022-11-20T04:23:28;94690.81;;;17.77;61.70
6224;BME280;3145;42.726;23.342;2022-11-20T04:26:00;94677.94;;;17.74;62.31
6224;BME280;3145;42.726;23.342;2022-11-20T04:28:27;94663.97;;;17.72;62.14
6224;BME280;3145;42.726;23.342;2022-11-20T04:30:54;94670.72;;;17.74;62.04
6224;BME280;3145;42.726;23.342;2022-11-20T04:33:21;94670.81;;;17.79;60.96
6224;BME280;3145;42.726;23.342;2022-11-20T04:35:47;94660.59;;;17.76;61.32
6224;BME280;3145;42.726;23.342;2022-11-20T04:38:14;94666.88;;;17.98;58.94
6224;BME280;3145;42.726;23.342;2022-11-20T04:40:41;94663.81;;;18.07;58.12
6224;BME280;3145;42.726;23.342;2022-11-20T04:43:09;94652.78;;;18.03;57.62
6224;BME280;3145;42.726;23.342;2022-11-20T04:45:35;94647.34;;;17.98;58.32
6224;BME280;3145;42.726;23.342;2022-11-20T04:48:03;94682.19;;;18.03;58.38
6224;BME280;3145;42.726;23.342;2022-11-20T04:50:29;94668.34;;;18.06;58.25
6224;BME280;3145;42.726;23.342;2022-11-20T04:52:56;94651.44;;;18.17;57.38
6224;BME280;3145;42.726;23.342;2022-11-20T04:55:23;94650.06;;;18.15;57.70
6224;BME280;3145;42.726;23.342;2022-11-20T04:57:50;94666.41;;;18.18;57.68
6224;BME280;3145;42.726;23.342;2022-11-20T05:00:18;94649.31;;;18.19;57.84
6224;BME280;3145;42.726;23.342;2022-11-20T05:02:45;94648.75;;;18.17;58.00
6224;BME280;3145;42.726;23.342;2022-11-20T05:05:12;94650.38;;;18.18;58.01
6224;BME280;3145;42.726;23.342;2022-11-20T05:07:39;94648.91;;;18.11;58.08
6224;BME280;3145;42.726;23.342;2022-11-20T05:10:06;94643.22;;;18.07;58.59
6224;BME280;3145;42.726;23.342;2022-11-20T05:12:33;94644.34;;;18.11;58.19
6224;BME280;3145;42.726;23.342;2022-11-20T05:15:00;94644.88;;;18.08;58.54
6224;BME280;3145;42.726;23.342;2022-11-20T05:17:28;94629.84;;;18.07;58.10
6224;BME280;3145;42.726;23.342;2022-11-20T05:19:54;94636.59;;;18.26;56.75
6224;BME280;3145;42.726;23.342;2022-11-20T05:22:21;94638.19;;;18.27;57.05
6224;BME280;3145;42.726;23.342;2022-11-20T05:24:48;94642.94;;;18.20;57.40
6224;BME280;3145;42.726;23.342;2022-11-20T05:27:15;94646.63;;;18.19;57.13
6224;BME280;3145;42.726;23.342;2022-11-20T05:29:42;94656.19;;;18.15;57.78
6224;BME280;3145;42.726;23.342;2022-11-20T05:32:08;94641.59;;;18.06;58.44
6224;BME280;3145;42.726;23.342;2022-11-20T05:34:36;94636.91;;;17.96;59.28
6224;BME280;3145;42.726;23.342;2022-11-20T05:37:03;94648.69;;;17.84;61.08
6224;BME280;3145;42.726;23.342;2022-11-20T05:39:30;94632.41;;;17.69;62.73
6224;BME280;3145;42.726;23.342;2022-11-20T05:41:56;94635.84;;;17.53;64.01
6224;BME280;3145;42.726;23.342;2022-11-20T05:44:37;94630.41;;;17.36;65.00
6224;BME280;3145;42.726;23.342;2022-11-20T05:47:04;94629.06;;;17.22;66.03
6224;BME280;3145;42.726;23.342;2022-11-20T05:49:31;94635.53;;;17.26;66.85
6224;BME280;3145;42.726;23.342;2022-11-20T05:51:59;94641.16;;;17.25;67.21
6224;BME280;3145;42.726;23.342;2022-11-20T05:54:26;94635.91;;;17.18;67.93
6224;BME280;3145;42.726;23.342;2022-11-20T05:56:52;94652.75;;;17.19;67.34
6224;BME280;3145;42.726;23.342;2022-11-20T05:59:19;94629.78;;;17.18;66.90
6224;BME280;3145;42.726;23.342;2022-11-20T06:01:46;94643.81;;;17.25;66.64
6224;BME280;3145;42.726;23.342;2022-11-20T06:04:12;94637.88;;;17.23;66.76
6224;BME280;3145;42.726;23.342;2022-11-20T06:06:39;94632.75;;;17.33;65.70
6224;BME280;3145;42.726;23.342;2022-11-20T06:09:07;94642.38;;;17.34;65.13
6224;BME280;3145;42.726;23.342;2022-11-20T06:11:34;94658.06;;;17.42;64.80
6224;BME280;3145;42.726;23.342;2022-11-20T06:14:00;94653.16;;;17.39;64.98
6224;BME280;3145;42.726;23.342;2022-11-20T06:16:27;94662.59;;;17.41;65.07
6224;BME280;3145;42.726;23.342;2022-11-20T06:18:54;94640.78;;;17.33;64.61
6224;BME280;3145;42.726;23.342;2022-11-20T06:21:21;94616.81;;;17.38;64.50
6224;BME280;3145;42.726;23.342;2022-11-20T06:23:49;94631.53;;;17.52;63.00
6224;BME280;3145;42.726;23.342;2022-11-20T06:26:19;94650.44;;;17.62;62.79
6224;BME280;3145;42.726;23.342;2022-11-20T06:28:46;94613.97;;;17.56;62.61
6224;BME280;3145;42.726;23.342;2022-11-20T06:31:15;94629.06;;;17.62;62.70
6224;BME280;3145;42.726;23.342;2022-11-20T06:33:42;94651.50;;;17.61;63.59
6224;BME280;3145;42.726;23.342;2022-11-20T06:36:11;94627.34;;;17.56;63.83
6224;BME280;3145;42.726;23.342;2022-11-20T06:38:38;94646.53;;;17.53;64.06
6224;BME280;3145;42.726;23.342;2022-11-20T06:41:06;94663.59;;;17.52;63.99
6224;BME280;3145;42.726;23.342;2022-11-20T06:43:34;94655.13;;;17.55;63.58
6224;BME280;3145;42.726;23.342;2022-11-20T06:46:01;94600.06;;;17.54;61.90
6224;BME280;3145;42.726;23.342;2022-11-20T06:48:29;94598.28;;;17.59;60.93
6224;BME280;3145;42.726;23.342;2022-11-20T06:50:56;94652.91;;;17.80;61.78
6224;BME280;3145;42.726;23.342;2022-11-20T06:53:23;94654.53;;;17.81;61.51
6224;BME280;3145;42.726;23.342;2022-11-20T06:55:51;94667.31;;;17.79;62.31
6224;BME280;3145;42.726;23.342;2022-11-20T06:58:18;94670.00;;;17.79;62.17
6224;BME280;3145;42.726;23.342;2022-11-20T07:00:46;94657.47;;;17.68;62.29
6224;BME280;3145;42.726;23.342;2022-11-20T07:03:13;94655.56;;;17.80;60.82
6224;BME280;3145;42.726;23.342;2022-11-20T07:05:40;94671.22;;;17.88;60.27
6224;BME280;3145;42.726;23.342;2022-11-20T07:08:07;94655.09;;;17.83;60.63
6224;BME280;3145;42.726;23.342;2022-11-20T07:10:34;94659.88;;;17.81;60.90
6224;BME280;3145;42.726;23.342;2022-11-20T07:13:01;94676.06;;;17.74;61.32
6224;BME280;3145;42.726;23.342;2022-11-20T07:15:27;94695.00;;;17.73;61.33
6224;BME280;3145;42.726;23.342;2022-11-20T07:17:58;94710.69;;;17.69;61.79
6224;BME280;3145;42.726;23.342;2022-11-20T07:20:24;94720.59;;;17.69;62.29
6224;BME280;3145;42.726;23.342;2022-11-20T07:22:53;94716.88;;;17.70;62.16
6224;BME280;3145;42.726;23.342;2022-11-20T07:25:20;94706.66;;;17.67;63.10
6224;BME280;3145;42.726;23.342;2022-11-20T07:27:46;94699.69;;;17.66;65.65
6224;BME280;3145;42.726;23.342;2022-11-20T07:30:14;94692.97;;;17.52;67.34
6224;BME280;3145;42.726;23.342;2022-11-20T07:32:40;94679.91;;;17.27;69.06
6224;BME280;3145;42.726;23.342;2022-11-20T07:35:09;94679.78;;;17.34;68.55
6224;BME280;3145;42.726;23.342;2022-11-20T07:37:35;94694.06;;;17.39;67.84
6224;BME280;3145;42.726;23.342;2022-11-20T07:40:03;94706.03;;;17.25;69.70
6224;BME280;3145;42.726;23.342;2022-11-20T07:42:30;94705.81;;;17.27;69.55
6224;BME280;3145;42.726;23.342;2022-11-20T07:44:56;94709.44;;;17.21;69.40
6224;BME280;3145;42.726;23.342;2022-11-20T07:47:23;94714.41;;;17.29;69.32
6224;BME280;3145;42.726;23.342;2022-11-20T07:49:50;94695.25;;;17.20;69.43
6224;BME280;3145;42.726;23.342;2022-11-20T07:52:18;94706.25;;;17.24;69.22
6224;BME280;3145;42.726;23.342;2022-11-20T07:54:44;94703.22;;;17.32;68.79
6224;BME280;3145;42.726;23.342;2022-11-20T07:57:11;94696.28;;;17.31;68.78
6224;BME280;3145;42.726;23.342;2022-11-20T07:59:38;94698.03;;;17.25;68.43
6224;BME280;3145;42.726;23.342;2022-11-20T08:02:05;94699.41;;;17.28;66.61
6224;BME280;3145;42.726;23.342;2022-11-20T08:04:31;94700.91;;;17.24;67.22
6224;BME280;3145;42.726;23.342;2022-11-20T08:06:58;94688.44;;;17.13;68.26
6224;BME280;3145;42.726;23.342;2022-11-20T08:09:26;94683.69;;;17.03;67.92
6224;BME280;3145;42.726;23.342;2022-11-20T08:11:54;94693.53;;;17.03;68.04
6224;BME280;3145;42.726;23.342;2022-11-20T08:14:38;94713.16;;;17.08;68.58
6224;BME280;3145;42.726;23.342;2022-11-20T08:17:05;94701.19;;;17.11;69.04
6224;BME280;3145;42.726;23.342;2022-11-20T08:19:31;94695.66;;;17.01;69.29
6224;BME280;3145;42.726;23.342;2022-11-20T08:21:58;94692.38;;;16.99;70.54
6224;BME280;3145;42.726;23.342;2022-11-20T08:24:26;94682.66;;;16.93;71.54
6224;BME280;3145;42.726;23.342;2022-11-20T08:26:53;94678.34;;;16.92;71.38
6224;BME280;3145;42.726;23.342;2022-11-20T08:29:19;94684.38;;;16.99;70.79
6224;BME280;3145;42.726;23.342;2022-11-20T08:31:46;94694.38;;;17.03;70.92
6224;BME280;3145;42.726;23.342;2022-11-20T08:34:13;94698.06;;;17.02;70.79
6224;BME280;3145;42.726;23.342;2022-11-20T08:36:40;94709.56;;;17.03;70.99
6224;BME280;3145;42.726;23.342;2022-11-20T08:39:07;94702.94;;;17.05;71.18
6224;BME280;3145;42.726;23.342;2022-11-20T08:41:35;94711.16;;;17.04;70.69
6224;BME280;3145;42.726;23.342;2022-11-20T08:44:03;94712.31;;;17.08;70.15
6224;BME280;3145;42.726;23.342;2022-11-20T08:46:33;94702.47;;;17.08;70.38
6224;BME280;3145;42.726;23.342;2022-11-20T08:49:01;94713.16;;;17.08;70.39
6224;BME280;3145;42.726;23.342;2022-11-20T08:51:28;94734.84;;;17.12;70.70
6224;BME280;3145;42.726;23.342;2022-11-20T08:53:55;94757.72;;;17.08;70.96
6224;BME280;3145;42.726;23.342;2022-11-20T08:56:21;94751.72;;;17.01;71.32
6224;BME280;3145;42.726;23.342;2022-11-20T08:58:51;94739.97;;;17.02;70.32
6224;BME280;3145;42.726;23.342;2022-11-20T09:01:17;94748.53;;;17.04;71.84
6224;BME280;3145;42.726;23.342;2022-11-20T09:03:45;94750.06;;;16.88;74.51
6224;BME280;3145;42.726;23.342;2022-11-20T09:06:13;94754.03;;;16.86;76.32
6224;BME280;3145;42.726;23.342;2022-11-20T09:08:39;94753.41;;;16.84;77.32
6224;BME280;3145;42.726;23.342;2022-11-20T09:11:06;94759.13;;;16.87;77.18
6224;BME280;3145;42.726;23.342;2022-11-20T09:13:34;94753.56;;;16.89;78.73
6224;BME280;3145;42.726;23.342;2022-11-20T09:16:04;94749.38;;;16.93;79.89
6224;BME280;3145;42.726;23.342;2022-11-20T09:18:31;94745.63;;;16.82;81.76
6224;BME280;3145;42.726;23.342;2022-11-20T09:21:00;94759.91;;;16.88;82.66
6224;BME280;3145;42.726;23.342;2022-11-20T09:23:30;94763.97;;;16.79;84.66
6224;BME280;3145;42.726;23.342;2022-11-20T09:25:58;94768.50;;;16.67;86.79
6224;BME280;3145;42.726;23.342;2022-11-20T09:28:25;94755.38;;;16.54;89.01
6224;BME280;3145;42.726;23.342;2022-11-20T09:30:52;94766.72;;;16.49;90.56
6224;BME280;3145;42.726;23.342;2022-11-20T09:33:20;94765.63;;;16.39;87.48
6224;BME280;3145;42.726;23.342;2022-11-20T09:35:46;94756.16;;;16.02;86.45
6224;BME280;3145;42.726;23.342;2022-11-20T09:38:13;94748.31;;;15.89;86.14
6224;BME280;3145;42.726;23.342;2022-11-20T09:40:48;94735.16;;;15.94;86.36
6224;BME280;3145;42.726;23.342;2022-11-20T09:43:21;94746.59;;;15.94;87.31
6224;BME280;3145;42.726;23.342;2022-11-20T09:46:05;94736.16;;;15.93;87.99
6224;BME280;3145;42.726;23.342;2022-11-20T09:48:53;94715.91;;;15.92;88.04
6224;BME280;3145;42.726;23.342;2022-11-20T09:51:30;94734.59;;;16.03;88.39
6224;BME280;3145;42.726;23.342;2022-11-20T09:54:07;94733.34;;;16.06;89.75
6224;BME280;3145;42.726;23.342;2022-11-20T09:56:42;94727.53;;;16.09;90.10
6224;BME280;3145;42.726;23.342;2022-11-20T09:59:19;94721.75;;;16.12;90.41
6224;BME280;3145;42.726;23.342;2022-11-20T10:01:50;94712.34;;;16.09;91.33
6224;BME280;3145;42.726;23.342;2022-11-20T10:04:20;94709.03;;;16.14;92.00
6224;BME280;3145;42.726;23.342;2022-11-20T10:06:52;94711.19;;;16.17;92.43
6224;BME280;3145;42.726;23.342;2022-11-20T10:09:28;94685.59;;;16.16;92.16
6224;BME280;3145;42.726;23.342;2022-11-20T10:12:06;94690.94;;;16.16;92.61
6224;BME280;3145;42.726;23.342;2022-11-20T10:14:45;94688.84;;;16.18;92.52
6224;BME280;3145;42.726;23.342;2022-11-20T10:17:26;94689.31;;;16.15;92.65
6224;BME280;3145;42.726;23.342;2022-11-20T10:20:16;94678.03;;;16.01;93.26
6224;BME280;3145;42.726;23.342;2022-11-20T10:22:54;94663.53;;;15.86;93.88
6224;BME280;3145;42.726;23.342;2022-11-20T10:25:32;94653.53;;;15.81;93.38
6224;BME280;3145;42.726;23.342;2022-11-20T10:28:15;94659.81;;;15.87;92.40
6224;BME280;3145;42.726;23.342;2022-11-20T10:30:44;94667.94;;;15.92;92.69
6224;BME280;3145;42.726;23.342;2022-11-20T10:33:16;94676.25;;;15.84;93.14
6224;BME280;3145;42.726;23.342;2022-11-20T10:35:51;94669.66;;;15.86;93.26
6224;BME280;3145;42.726;23.342;2022-11-20T10:38:23;94684.38;;;15.89;92.82
6224;BME280;3145;42.726;23.342;2022-11-20T10:40:54;94673.94;;;15.87;92.84
6224;BME280;3145;42.726;23.342;2022-11-20T10:43:44;94675.09;;;15.91;92.94
6224;BME280;3145;42.726;23.342;2022-11-20T10:46:15;94685.53;;;15.93;93.25
6224;BME280;3145;42.726;23.342;2022-11-20T10:48:43;94681.47;;;15.90;93.78
6224;BME280;3145;42.726;23.342;2022-11-20T10:51:21;94683.09;;;15.91;94.05
6224;BME280;3145;42.726;23.342;2022-11-20T10:53:57;94681.84;;;15.94;94.34
6224;BME280;3145;42.726;23.342;2022-11-20T10:56:31;94661.69;;;15.98;94.29
6224;BME280;3145;42.726;23.342;2022-11-20T10:59:12;94676.03;;;15.97;93.47
6224;BME280;3145;42.726;23.342;2022-11-20T11:01:46;94687.31;;;15.99;93.45
6224;BME280;3145;42.726;23.342;2022-11-20T11:04:24;94698.09;;;16.04;93.54
6224;BME280;3145;42.726;23.342;2022-11-20T11:07:02;94701.13;;;16.07;94.11
6224;BME280;3145;42.726;23.342;2022-11-20T11:09:34;94720.91;;;16.00;93.53
6224;BME280;3145;42.726;23.342;2022-11-20T11:12:06;94758.13;;;15.77;92.89
6224;BME280;3145;42.726;23.342;2022-11-20T11:14:42;94751.75;;;15.06;90.48
6224;BME280;3145;42.726;23.342;2022-11-20T11:17:20;94737.50;;;14.58;88.73
6224;BME280;3145;42.726;23.342;2022-11-20T11:19:57;94742.72;;;14.22;90.30
6224;BME280;3145;42.726;23.342;2022-11-20T11:22:28;94723.53;;;14.13;92.17
6224;BME280;3145;42.726;23.342;2022-11-20T11:24:55;94719.13;;;14.01;92.60
6224;BME280;3145;42.726;23.342;2022-11-20T11:27:22;94722.38;;;14.02;94.35
6224;BME280;3145;42.726;23.342;2022-11-20T11:29:49;94705.28;;;13.92;95.41
6224;BME280;3145;42.726;23.342;2022-11-20T11:32:18;94688.09;;;13.94;93.35
6224;BME280;3145;42.726;23.342;2022-11-20T11:34:58;94691.22;;;13.92;94.38
6224;BME280;3145;42.726;23.342;2022-11-20T11:37:28;94702.69;;;13.85;95.02
6224;BME280;3145;42.726;23.342;2022-11-20T11:39:58;94701.06;;;13.84;95.37
6224;BME280;3145;42.726;23.342;2022-11-20T11:42:25;94706.66;;;13.70;95.76
6224;BME280;3145;42.726;23.342;2022-11-20T11:44:56;94708.91;;;13.73;95.78
6224;BME280;3145;42.726;23.342;2022-11-20T11:47:35;94724.22;;;13.71;96.34
6224;BME280;3145;42.726;23.342;2022-11-20T11:50:14;94720.41;;;13.60;97.01
6224;BME280;3145;42.726;23.342;2022-11-20T11:52:46;94712.84;;;13.57;96.60
6224;BME280;3145;42.726;23.342;2022-11-20T11:55:19;94691.91;;;13.43;95.05
6224;BME280;3145;42.726;23.342;2022-11-20T11:57:54;94682.88;;;13.50;95.03
6224;BME280;3145;42.726;23.342;2022-11-20T12:00:23;94719.13;;;13.69;94.74
6224;BME280;3145;42.726;23.342;2022-11-20T12:02:57;94710.31;;;13.75;95.24
6224;BME280;3145;42.726;23.342;2022-11-20T12:05:29;94734.44;;;13.74;95.85
6224;BME280;3145;42.726;23.342;2022-11-20T12:08:02;94741.72;;;13.78;96.49
6224;BME280;3145;42.726;23.342;2022-11-20T12:10:40;94744.59;;;13.83;96.53
6224;BME280;3145;42.726;23.342;2022-11-20T12:13:15;94729.06;;;13.80;97.37
6224;BME280;3145;42.726;23.342;2022-11-20T12:15:46;94726.97;;;13.89;97.74
6224;BME280;3145;42.726;23.342;2022-11-20T12:18:15;94715.53;;;13.88;96.90
6224;BME280;3145;42.726;23.342;2022-11-20T12:20:50;94720.63;;;13.90;96.93
6224;BME280;3145;42.726;23.342;2022-11-20T12:23:25;94720.63;;;13.90;95.55
6224;BME280;3145;42.726;23.342;2022-11-20T12:25:57;94721.69;;;13.82;96.48
6224;BME280;3145;42.726;23.342;2022-11-20T12:28:37;94722.13;;;13.79;97.21
6224;BME280;3145;42.726;23.342;2022-11-20T12:31:24;94727.88;;;13.76;97.82
6224;BME280;3145;42.726;23.342;2022-11-20T12:34:13;94739.41;;;13.57;98.32
6224;BME280;3145;42.726;23.342;2022-11-20T12:36:50;94727.03;;;13.38;99.33
6224;BME280;3145;42.726;23.342;2022-11-20T12:39:31;94721.38;;;13.28;99.84
6224;BME280;3145;42.726;23.342;2022-11-20T12:42:21;94696.38;;;13.11;100.00
6224;BME280;3145;42.726;23.342;2022-11-20T12:45:18;94677.19;;;13.09;100.00
6224;BME280;3145;42.726;23.342;2022-11-20T12:48:12;94679.03;;;13.02;100.00
6224;BME280;3145;42.726;23.342;2022-11-20T12:50:51;94678.00;;;12.97;100.00
6224;BME280;3145;42.726;23.342;2022-11-20T12:53:27;94681.31;;;12.99;100.00
6224;BME280;3145;42.726;23.342;2022-11-20T12:56:04;94639.94;;;12.78;100.00
6224;BME280;3145;42.726;23.342;2022-11-20T12:58:38;94675.16;;;13.05;100.00
6224;BME280;3145;42.726;23.342;2022-11-20T13:01:17;94681.03;;;13.13;100.00
6224;BME280;3145;42.726;23.342;2022-11-20T13:04:08;94685.50;;;13.13;100.00
6224;BME280;3145;42.726;23.342;2022-11-20T13:06:35;94691.22;;;13.16;100.00
6224;BME280;3145;42.726;23.342;2022-11-20T13:09:02;94702.63;;;13.23;100.00
6224;BME280;3145;42.726;23.342;2022-11-20T13:11:41;94685.09;;;13.16;100.00
6224;BME280;3145;42.726;23.342;2022-11-20T13:14:24;94661.09;;;13.04;100.00
6224;BME280;3145;42.726;23.342;2022-11-20T13:16:58;94670.28;;;12.95;100.00
6224;BME280;3145;42.726;23.342;2022-11-20T13:19:27;94657.66;;;12.91;100.00
6224;BME280;3145;42.726;23.342;2022-11-20T13:21:54;94669.91;;;12.85;100.00
6224;BME280;3145;42.726;23.342;2022-11-20T13:24:27;94663.34;;;12.88;100.00